sensor_id;sensor_type;location;lat;lon;timestamp;pressure;altitude;pressure_sealevel;temperature;humidity
77517;BME280;66628;53.946;27.634;2023-03-01T00:00:54;99205.093750;;;20.760000;25.481445
77517;BME280;66628;53.946;27.634;2023-03-01T00:01:54;99205.546875;;;20.770000;25.504883
77517;BME280;66628;53.946;27.634;2023-03-01T00:02:54;99200.843750;;;20.760000;25.458984
77517;BME280;66628;53.946;27.634;2023-03-01T00:03:55;99201.906250;;;20.750000;25.480469
77517;BME280;66628;53.946;27.634;2023-03-01T00:04:54;99202.882812;;;20.730000;25.603516
77517;BME280;66628;53.946;27.634;2023-03-01T00:05:54;99202.093750;;;20.770000;25.470703
77517;BME280;66628;53.946;27.634;2023-03-01T00:06:54;99203.585938;;;20.750000;25.526367
77517;BME280;66628;53.946;27.634;2023-03-01T00:07:54;99201.140625;;;20.740000;25.468750
77517;BME280;66628;53.946;27.634;2023-03-01T00:08:55;99198.460938;;;20.750000;25.413086
77517;BME280;66628;53.946;27.634;2023-03-01T00:09:54;99200.750000;;;20.700001;25.556641
77517;BME280;66628;53.946;27.634;2023-03-01T00:11:55;99196.093750;;;20.690001;25.871094
77517;BME280;66628;53.946;27.634;2023-03-01T00:12:54;99201.890625;;;20.680000;25.904297
77517;BME280;66628;53.946;27.634;2023-03-01T00:13:55;99200.875000;;;20.690001;25.534180
77517;BME280;66628;53.946;27.634;2023-03-01T00:14:54;99205.664062;;;20.650000;25.396484
77517;BME280;66628;53.946;27.634;2023-03-01T00:15:54;99197.046875;;;20.680000;25.554688
77517;BME280;66628;53.946;27.634;2023-03-01T00:16:54;99203.390625;;;20.660000;25.520508
77517;BME280;66628;53.946;27.634;2023-03-01T00:17:54;99199.515625;;;20.660000;25.340820
77517;BME280;66628;53.946;27.634;2023-03-01T00:18:55;99196.312500;;;20.670000;25.295898
77517;BME280;66628;53.946;27.634;2023-03-01T00:19:54;99199.937500;;;20.660000;25.430664
77517;BME280;66628;53.946;27.634;2023-03-01T00:20:56;99198.578125;;;20.700001;25.343750
77517;BME280;66628;53.946;27.634;2023-03-01T00:21:54;99199.921875;;;20.700001;25.500000
77517;BME280;66628;53.946;27.634;2023-03-01T00:22:54;99204.078125;;;20.730000;25.458008
77517;BME280;66628;53.946;27.634;2023-03-01T00:23:55;99204.140625;;;20.760000;25.448242
77517;BME280;66628;53.946;27.634;2023-03-01T00:24:54;99202.312500;;;20.740000;25.378906
77517;BME280;66628;53.946;27.634;2023-03-01T00:25:54;99205.421875;;;20.770000;25.538086
77517;BME280;66628;53.946;27.634;2023-03-01T00:26:54;99200.367188;;;20.770000;25.999023
77517;BME280;66628;53.946;27.634;2023-03-01T00:27:54;99201.125000;;;20.799999;26.101562
77517;BME280;66628;53.946;27.634;2023-03-01T00:28:54;99198.445312;;;20.799999;25.876953
77517;BME280;66628;53.946;27.634;2023-03-01T00:29:54;99196.742188;;;20.870001;25.937500
77517;BME280;66628;53.946;27.634;2023-03-01T00:30:54;99196.546875;;;20.889999;25.803711
77517;BME280;66628;53.946;27.634;2023-03-01T00:31:54;99193.695312;;;20.930000;25.738281
77517;BME280;66628;53.946;27.634;2023-03-01T00:32:57;99190.703125;;;20.969999;25.965820
77517;BME280;66628;53.946;27.634;2023-03-01T00:33:55;99189.250000;;;21.000000;25.787109
77517;BME280;66628;53.946;27.634;2023-03-01T00:34:54;99187.671875;;;21.010000;25.719727
77517;BME280;66628;53.946;27.634;2023-03-01T00:35:54;99186.851562;;;21.010000;25.743164
77517;BME280;66628;53.946;27.634;2023-03-01T00:36:54;99185.687500;;;21.030001;25.800781
77517;BME280;66628;53.946;27.634;2023-03-01T00:37:54;99181.234375;;;21.030001;26.014648
77517;BME280;66628;53.946;27.634;2023-03-01T00:38:54;99183.562500;;;21.040001;25.745117
77517;BME280;66628;53.946;27.634;2023-03-01T00:39:54;99179.828125;;;21.070000;25.769531
77517;BME280;66628;53.946;27.634;2023-03-01T00:40:54;99177.984375;;;21.080000;25.713867
77517;BME280;66628;53.946;27.634;2023-03-01T00:41:54;99179.406250;;;21.110001;25.828125
77517;BME280;66628;53.946;27.634;2023-03-01T00:42:54;99179.164062;;;21.120001;25.704102
77517;BME280;66628;53.946;27.634;2023-03-01T00:43:54;99177.562500;;;21.129999;25.806641
77517;BME280;66628;53.946;27.634;2023-03-01T00:44:54;99175.164062;;;21.160000;25.751953
77517;BME280;66628;53.946;27.634;2023-03-01T00:45:54;99178.515625;;;21.160000;25.684570
77517;BME280;66628;53.946;27.634;2023-03-01T00:46:54;99175.265625;;;21.200001;25.788086
77517;BME280;66628;53.946;27.634;2023-03-01T00:47:54;99175.609375;;;21.180000;25.685547
77517;BME280;66628;53.946;27.634;2023-03-01T00:48:54;99169.632812;;;21.190001;25.730469
77517;BME280;66628;53.946;27.634;2023-03-01T00:49:54;99167.859375;;;21.209999;25.620117
77517;BME280;66628;53.946;27.634;2023-03-01T00:50:54;99169.335938;;;21.219999;25.868164
77517;BME280;66628;53.946;27.634;2023-03-01T00:51:55;99169.710938;;;21.240000;25.610352
77517;BME280;66628;53.946;27.634;2023-03-01T00:52:55;99166.984375;;;21.240000;25.688477
77517;BME280;66628;53.946;27.634;2023-03-01T00:53:55;99163.531250;;;21.240000;25.790039
77517;BME280;66628;53.946;27.634;2023-03-01T00:54:54;99163.156250;;;21.280001;25.803711
77517;BME280;66628;53.946;27.634;2023-03-01T00:55:56;99167.828125;;;21.290001;25.905273
77517;BME280;66628;53.946;27.634;2023-03-01T00:56:54;99163.226562;;;21.309999;25.873047
77517;BME280;66628;53.946;27.634;2023-03-01T00:57:54;99166.953125;;;21.309999;25.783203
77517;BME280;66628;53.946;27.634;2023-03-01T00:58:54;99161.093750;;;21.299999;25.680664
77517;BME280;66628;53.946;27.634;2023-03-01T00:59:54;99159.148438;;;21.299999;25.726562
77517;BME280;66628;53.946;27.634;2023-03-01T01:00:54;99153.039062;;;21.320000;25.851562
77517;BME280;66628;53.946;27.634;2023-03-01T01:01:54;99151.312500;;;21.340000;25.773438
77517;BME280;66628;53.946;27.634;2023-03-01T01:02:54;99144.671875;;;21.360001;25.865234
77517;BME280;66628;53.946;27.634;2023-03-01T01:03:55;99140.093750;;;21.370001;25.966797
77517;BME280;66628;53.946;27.634;2023-03-01T01:04:54;99133.531250;;;21.410000;25.969727
77517;BME280;66628;53.946;27.634;2023-03-01T01:05:54;99131.156250;;;21.379999;25.663086
77517;BME280;66628;53.946;27.634;2023-03-01T01:06:54;99133.437500;;;21.379999;25.753906
77517;BME280;66628;53.946;27.634;2023-03-01T01:07:54;99133.906250;;;21.410000;25.945312
77517;BME280;66628;53.946;27.634;2023-03-01T01:08:55;99134.765625;;;21.410000;26.059570
77517;BME280;66628;53.946;27.634;2023-03-01T01:09:54;99132.703125;;;21.430000;26.161133
77517;BME280;66628;53.946;27.634;2023-03-01T01:10:54;99137.734375;;;21.420000;26.070312
77517;BME280;66628;53.946;27.634;2023-03-01T01:11:54;99139.859375;;;21.410000;26.046875
77517;BME280;66628;53.946;27.634;2023-03-01T01:12:54;99143.617188;;;21.430000;25.823242
77517;BME280;66628;53.946;27.634;2023-03-01T01:13:55;99145.851562;;;21.420000;25.901367
77517;BME280;66628;53.946;27.634;2023-03-01T01:14:54;99144.218750;;;21.420000;25.800781
77517;BME280;66628;53.946;27.634;2023-03-01T01:15:54;99141.640625;;;21.400000;25.788086
77517;BME280;66628;53.946;27.634;2023-03-01T01:16:54;99142.234375;;;21.420000;25.878906
77517;BME280;66628;53.946;27.634;2023-03-01T01:17:54;99141.343750;;;21.430000;25.790039
77517;BME280;66628;53.946;27.634;2023-03-01T01:18:55;99138.843750;;;21.420000;25.980469
77517;BME280;66628;53.946;27.634;2023-03-01T01:19:54;99138.078125;;;21.450001;25.993164
77517;BME280;66628;53.946;27.634;2023-03-01T01:20:54;99137.484375;;;21.459999;25.959961
77517;BME280;66628;53.946;27.634;2023-03-01T01:21:54;99141.562500;;;21.459999;25.926758
77517;BME280;66628;53.946;27.634;2023-03-01T01:22:54;99140.515625;;;21.459999;26.106445
77517;BME280;66628;53.946;27.634;2023-03-01T01:23:54;99140.640625;;;21.459999;26.118164
77517;BME280;66628;53.946;27.634;2023-03-01T01:24:54;99145.437500;;;21.480000;26.107422
77517;BME280;66628;53.946;27.634;2023-03-01T01:25:54;99144.109375;;;21.469999;26.062500
77517;BME280;66628;53.946;27.634;2023-03-01T01:26:54;99148.765625;;;21.490000;25.951172
77517;BME280;66628;53.946;27.634;2023-03-01T01:27:55;99154.554688;;;21.480000;25.995117
77517;BME280;66628;53.946;27.634;2023-03-01T01:28:54;99146.515625;;;21.469999;26.107422
77517;BME280;66628;53.946;27.634;2023-03-01T01:29:54;99149.789062;;;21.510000;26.053711
77517;BME280;66628;53.946;27.634;2023-03-01T01:30:54;99144.507812;;;21.490000;26.030273
77517;BME280;66628;53.946;27.634;2023-03-01T01:31:54;99143.757812;;;21.500000;26.007812
77517;BME280;66628;53.946;27.634;2023-03-01T01:32:54;99142.554688;;;21.500000;26.086914
77517;BME280;66628;53.946;27.634;2023-03-01T01:33:55;99146.859375;;;21.500000;26.030273
77517;BME280;66628;53.946;27.634;2023-03-01T01:34:54;99145.960938;;;21.520000;26.053711
77517;BME280;66628;53.946;27.634;2023-03-01T01:35:54;99145.656250;;;21.520000;26.064453
77517;BME280;66628;53.946;27.634;2023-03-01T01:36:54;99145.484375;;;21.530001;26.166992
77517;BME280;66628;53.946;27.634;2023-03-01T01:37:54;99144.835938;;;21.520000;26.312500
77517;BME280;66628;53.946;27.634;2023-03-01T01:38:54;99144.656250;;;21.530001;26.077148
77517;BME280;66628;53.946;27.634;2023-03-01T01:39:54;99140.593750;;;21.549999;26.235352
77517;BME280;66628;53.946;27.634;2023-03-01T01:40:54;99141.046875;;;21.530001;26.065430
77517;BME280;66628;53.946;27.634;2023-03-01T01:41:54;99146.859375;;;21.540001;26.178711
77517;BME280;66628;53.946;27.634;2023-03-01T01:42:54;99146.000000;;;21.530001;26.166992
77517;BME280;66628;53.946;27.634;2023-03-01T01:45:55;99140.820312;;;21.549999;26.067383
77517;BME280;66628;53.946;27.634;2023-03-01T01:47:55;99138.757812;;;21.590000;26.249023
77517;BME280;66628;53.946;27.634;2023-03-01T01:48:59;99137.515625;;;21.590000;26.226562
77517;BME280;66628;53.946;27.634;2023-03-01T01:49:55;99133.296875;;;21.600000;26.227539
77517;BME280;66628;53.946;27.634;2023-03-01T01:50:59;99135.968750;;;21.610001;26.137695
77517;BME280;66628;53.946;27.634;2023-03-01T01:51:59;99140.585938;;;21.610001;26.261719
77517;BME280;66628;53.946;27.634;2023-03-01T01:52:54;99142.843750;;;21.600000;26.182617
77517;BME280;66628;53.946;27.634;2023-03-01T01:53:58;99144.390625;;;21.600000;26.227539
77517;BME280;66628;53.946;27.634;2023-03-01T01:55:02;99141.914062;;;21.610001;26.227539
77517;BME280;66628;53.946;27.634;2023-03-01T01:55:55;99140.000000;;;21.610001;26.272461
77517;BME280;66628;53.946;27.634;2023-03-01T01:56:56;99143.687500;;;21.610001;26.137695
77517;BME280;66628;53.946;27.634;2023-03-01T01:57:56;99142.257812;;;21.620001;26.217773
77517;BME280;66628;53.946;27.634;2023-03-01T01:58:54;99145.796875;;;21.600000;26.194336
77517;BME280;66628;53.946;27.634;2023-03-01T01:59:56;99149.718750;;;21.629999;26.217773
77517;BME280;66628;53.946;27.634;2023-03-01T02:00:54;99149.671875;;;21.600000;26.283203
77517;BME280;66628;53.946;27.634;2023-03-01T02:01:54;99144.312500;;;21.620001;26.250977
77517;BME280;66628;53.946;27.634;2023-03-01T02:03:01;99142.656250;;;21.620001;26.240234
77517;BME280;66628;53.946;27.634;2023-03-01T02:03:54;99138.875000;;;21.620001;26.228516
77517;BME280;66628;53.946;27.634;2023-03-01T02:04:58;99136.921875;;;21.639999;26.331055
77517;BME280;66628;53.946;27.634;2023-03-01T02:06:00;99142.281250;;;21.629999;26.331055
77517;BME280;66628;53.946;27.634;2023-03-01T02:07:54;99141.531250;;;21.639999;26.420898
77517;BME280;66628;53.946;27.634;2023-03-01T02:08:55;99142.398438;;;21.670000;26.388672
77517;BME280;66628;53.946;27.634;2023-03-01T02:09:54;99146.109375;;;21.680000;26.446289
77517;BME280;66628;53.946;27.634;2023-03-01T02:10:54;99142.171875;;;21.660000;26.467773
77517;BME280;66628;53.946;27.634;2023-03-01T02:11:54;99138.296875;;;21.670000;26.333008
77517;BME280;66628;53.946;27.634;2023-03-01T02:12:55;99135.335938;;;21.660000;26.659180
77517;BME280;66628;53.946;27.634;2023-03-01T02:13:54;99132.937500;;;21.660000;26.613281
77517;BME280;66628;53.946;27.634;2023-03-01T02:14:54;99131.453125;;;21.700001;26.671875
77517;BME280;66628;53.946;27.634;2023-03-01T02:15:54;99135.109375;;;21.690001;26.547852
77517;BME280;66628;53.946;27.634;2023-03-01T02:16:54;99134.312500;;;21.680000;26.524414
77517;BME280;66628;53.946;27.634;2023-03-01T02:17:54;99135.593750;;;21.680000;26.546875
77517;BME280;66628;53.946;27.634;2023-03-01T02:18:54;99133.109375;;;21.670000;26.535156
77517;BME280;66628;53.946;27.634;2023-03-01T02:20:58;99137.765625;;;21.670000;26.422852
77517;BME280;66628;53.946;27.634;2023-03-01T02:22:54;99130.929688;;;21.670000;26.400391
77517;BME280;66628;53.946;27.634;2023-03-01T02:23:54;99127.531250;;;21.680000;26.513672
77517;BME280;66628;53.946;27.634;2023-03-01T02:25:58;99128.968750;;;21.690001;26.435547
77517;BME280;66628;53.946;27.634;2023-03-01T02:26:54;99129.476562;;;21.700001;26.458008
77517;BME280;66628;53.946;27.634;2023-03-01T02:28:05;99132.054688;;;21.690001;26.435547
77517;BME280;66628;53.946;27.634;2023-03-01T02:28:54;99133.078125;;;21.680000;26.412109
77517;BME280;66628;53.946;27.634;2023-03-01T02:29:54;99130.265625;;;21.719999;26.471680
77517;BME280;66628;53.946;27.634;2023-03-01T02:30:54;99126.890625;;;21.700001;26.626953
77517;BME280;66628;53.946;27.634;2023-03-01T02:31:55;99123.632812;;;21.700001;26.616211
77517;BME280;66628;53.946;27.634;2023-03-01T02:32:54;99117.070312;;;21.709999;26.492188
77517;BME280;66628;53.946;27.634;2023-03-01T02:33:54;99117.140625;;;21.700001;26.514648
77517;BME280;66628;53.946;27.634;2023-03-01T02:34:54;99115.734375;;;21.730000;26.628906
77517;BME280;66628;53.946;27.634;2023-03-01T02:35:54;99114.359375;;;21.719999;26.583984
77517;BME280;66628;53.946;27.634;2023-03-01T02:36:56;99119.570312;;;21.719999;26.425781
77517;BME280;66628;53.946;27.634;2023-03-01T02:37:54;99119.203125;;;21.719999;26.448242
77517;BME280;66628;53.946;27.634;2023-03-01T02:38:56;99116.765625;;;21.719999;26.628906
77517;BME280;66628;53.946;27.634;2023-03-01T02:39:58;99116.640625;;;21.740000;26.607422
77517;BME280;66628;53.946;27.634;2023-03-01T02:40:54;99117.109375;;;21.719999;26.482422
77517;BME280;66628;53.946;27.634;2023-03-01T02:41:54;99118.515625;;;21.740000;26.618164
77517;BME280;66628;53.946;27.634;2023-03-01T02:42:56;99121.093750;;;21.740000;26.583984
77517;BME280;66628;53.946;27.634;2023-03-01T02:43:54;99123.125000;;;21.719999;26.617188
77517;BME280;66628;53.946;27.634;2023-03-01T02:44:54;99121.671875;;;21.750000;26.550781
77517;BME280;66628;53.946;27.634;2023-03-01T02:45:57;99121.968750;;;21.740000;26.764648
77517;BME280;66628;53.946;27.634;2023-03-01T02:46:55;99121.515625;;;21.760000;26.664062
77517;BME280;66628;53.946;27.634;2023-03-01T02:47:55;99121.031250;;;21.770000;26.654297
77517;BME280;66628;53.946;27.634;2023-03-01T02:48:56;99121.281250;;;21.770000;26.597656
77517;BME280;66628;53.946;27.634;2023-03-01T02:49:54;99116.031250;;;21.770000;26.620117
77517;BME280;66628;53.946;27.634;2023-03-01T02:51:01;99117.484375;;;21.760000;27.103516
77517;BME280;66628;53.946;27.634;2023-03-01T02:52:56;99116.781250;;;21.760000;26.877930
77517;BME280;66628;53.946;27.634;2023-03-01T02:54:17;99114.554688;;;21.760000;26.732422
77517;BME280;66628;53.946;27.634;2023-03-01T02:55:54;99115.250000;;;21.760000;26.743164
77517;BME280;66628;53.946;27.634;2023-03-01T02:56:54;99114.023438;;;21.770000;26.642578
77517;BME280;66628;53.946;27.634;2023-03-01T02:57:54;99112.945312;;;21.780001;26.732422
77517;BME280;66628;53.946;27.634;2023-03-01T02:58:54;99115.273438;;;21.780001;26.800781
77517;BME280;66628;53.946;27.634;2023-03-01T02:59:54;99113.859375;;;21.790001;26.824219
77517;BME280;66628;53.946;27.634;2023-03-01T03:00:54;99120.757812;;;21.780001;26.834961
77517;BME280;66628;53.946;27.634;2023-03-01T03:01:54;99120.054688;;;21.790001;26.936523
77517;BME280;66628;53.946;27.634;2023-03-01T03:02:54;99120.078125;;;21.790001;26.890625
77517;BME280;66628;53.946;27.634;2023-03-01T03:03:54;99117.750000;;;21.799999;26.948242
77517;BME280;66628;53.946;27.634;2023-03-01T03:04:54;99121.648438;;;21.809999;26.871094
77517;BME280;66628;53.946;27.634;2023-03-01T03:05:54;99119.703125;;;21.790001;27.060547
77517;BME280;66628;53.946;27.634;2023-03-01T03:06:54;99127.960938;;;21.809999;27.107422
77517;BME280;66628;53.946;27.634;2023-03-01T03:07:54;99126.359375;;;21.820000;26.960938
77517;BME280;66628;53.946;27.634;2023-03-01T03:08:54;99129.421875;;;21.820000;27.129883
77517;BME280;66628;53.946;27.634;2023-03-01T03:09:54;99128.609375;;;21.830000;26.938477
77517;BME280;66628;53.946;27.634;2023-03-01T03:10:54;99128.265625;;;21.830000;27.186523
77517;BME280;66628;53.946;27.634;2023-03-01T03:11:54;99128.156250;;;21.840000;27.277344
77517;BME280;66628;53.946;27.634;2023-03-01T03:13:04;99123.546875;;;21.840000;27.299805
77517;BME280;66628;53.946;27.634;2023-03-01T03:13:54;99127.257812;;;21.830000;27.265625
77517;BME280;66628;53.946;27.634;2023-03-01T03:14:54;99133.718750;;;21.840000;27.401367
77517;BME280;66628;53.946;27.634;2023-03-01T03:15:55;99131.671875;;;21.840000;27.524414
77517;BME280;66628;53.946;27.634;2023-03-01T03:16:54;99135.390625;;;21.850000;27.323242
77517;BME280;66628;53.946;27.634;2023-03-01T03:17:55;99134.625000;;;21.850000;27.356445
77517;BME280;66628;53.946;27.634;2023-03-01T03:18:56;99135.187500;;;21.860001;27.391602
77517;BME280;66628;53.946;27.634;2023-03-01T03:19:54;99134.468750;;;21.870001;27.583008
77517;BME280;66628;53.946;27.634;2023-03-01T03:20:54;99132.390625;;;21.860001;27.324219
77517;BME280;66628;53.946;27.634;2023-03-01T03:21:54;99135.515625;;;21.870001;27.357422
77517;BME280;66628;53.946;27.634;2023-03-01T03:22:55;99132.515625;;;21.860001;27.526367
77517;BME280;66628;53.946;27.634;2023-03-01T03:23:54;99133.750000;;;21.830000;27.457031
77517;BME280;66628;53.946;27.634;2023-03-01T03:24:54;99133.703125;;;21.879999;27.459961
77517;BME280;66628;53.946;27.634;2023-03-01T03:25:54;99134.539062;;;21.860001;27.469727
77517;BME280;66628;53.946;27.634;2023-03-01T03:26:54;99132.500000;;;21.900000;27.697266
77517;BME280;66628;53.946;27.634;2023-03-01T03:27:55;99135.125000;;;21.920000;27.596680
77517;BME280;66628;53.946;27.634;2023-03-01T03:28:54;99130.242188;;;21.910000;27.641602
77517;BME280;66628;53.946;27.634;2023-03-01T03:29:54;99132.937500;;;21.930000;27.620117
77517;BME280;66628;53.946;27.634;2023-03-01T03:30:54;99139.859375;;;21.900000;27.629883
77517;BME280;66628;53.946;27.634;2023-03-01T03:31:54;99136.132812;;;21.910000;27.708984
77517;BME280;66628;53.946;27.634;2023-03-01T03:32:56;99140.164062;;;21.910000;27.698242
77517;BME280;66628;53.946;27.634;2023-03-01T03:33:54;99144.070312;;;21.920000;27.653320
77517;BME280;66628;53.946;27.634;2023-03-01T03:34:54;99144.898438;;;21.910000;27.585938
77517;BME280;66628;53.946;27.634;2023-03-01T03:35:54;99142.578125;;;21.879999;27.594727
77517;BME280;66628;53.946;27.634;2023-03-01T03:36:54;99149.507812;;;21.900000;27.663086
77517;BME280;66628;53.946;27.634;2023-03-01T03:37:54;99153.296875;;;21.889999;27.786133
77517;BME280;66628;53.946;27.634;2023-03-01T03:38:54;99146.632812;;;21.870001;27.572266
77517;BME280;66628;53.946;27.634;2023-03-01T03:39:54;99150.406250;;;21.910000;27.732422
77517;BME280;66628;53.946;27.634;2023-03-01T03:41:54;99151.609375;;;21.920000;27.777344
77517;BME280;66628;53.946;27.634;2023-03-01T03:42:54;99142.328125;;;21.889999;27.718750
77517;BME280;66628;53.946;27.634;2023-03-01T03:43:54;99138.015625;;;21.879999;27.640625
77517;BME280;66628;53.946;27.634;2023-03-01T03:44:54;99146.109375;;;21.889999;27.775391
77517;BME280;66628;53.946;27.634;2023-03-01T03:45:54;99147.031250;;;21.910000;27.765625
77517;BME280;66628;53.946;27.634;2023-03-01T03:46:54;99147.031250;;;21.910000;27.742188
77517;BME280;66628;53.946;27.634;2023-03-01T03:47:54;99148.578125;;;21.920000;27.901367
77517;BME280;66628;53.946;27.634;2023-03-01T03:48:54;99142.828125;;;21.959999;27.835938
77517;BME280;66628;53.946;27.634;2023-03-01T03:49:54;99146.914062;;;21.940001;27.631836
77517;BME280;66628;53.946;27.634;2023-03-01T03:50:55;99142.671875;;;21.920000;27.619141
77517;BME280;66628;53.946;27.634;2023-03-01T03:51:54;99142.859375;;;21.950001;27.710938
77517;BME280;66628;53.946;27.634;2023-03-01T03:52:54;99146.695312;;;21.930000;27.799805
77517;BME280;66628;53.946;27.634;2023-03-01T03:53:54;99142.515625;;;21.920000;27.743164
77517;BME280;66628;53.946;27.634;2023-03-01T03:54:54;99139.421875;;;21.940001;28.014648
77517;BME280;66628;53.946;27.634;2023-03-01T03:55:54;99139.179688;;;21.920000;27.765625
77517;BME280;66628;53.946;27.634;2023-03-01T03:56:54;99142.062500;;;21.930000;27.789062
77517;BME280;66628;53.946;27.634;2023-03-01T03:57:54;99137.476562;;;21.920000;27.754883
77517;BME280;66628;53.946;27.634;2023-03-01T03:58:54;99140.757812;;;21.920000;27.822266
77517;BME280;66628;53.946;27.634;2023-03-01T03:59:54;99141.453125;;;21.950001;27.902344
77517;BME280;66628;53.946;27.634;2023-03-01T04:00:55;99145.367188;;;21.920000;27.844727
77517;BME280;66628;53.946;27.634;2023-03-01T04:01:54;99143.578125;;;21.940001;28.116211
77517;BME280;66628;53.946;27.634;2023-03-01T04:02:54;99144.750000;;;21.959999;28.117188
77517;BME280;66628;53.946;27.634;2023-03-01T04:03:54;99148.101562;;;21.980000;28.164062
77517;BME280;66628;53.946;27.634;2023-03-01T04:04:54;99150.039062;;;21.969999;27.949219
77517;BME280;66628;53.946;27.634;2023-03-01T04:05:56;99155.750000;;;21.959999;28.016602
77517;BME280;66628;53.946;27.634;2023-03-01T04:06:54;99153.156250;;;21.940001;27.936523
77517;BME280;66628;53.946;27.634;2023-03-01T04:07:54;99152.671875;;;21.950001;28.048828
77517;BME280;66628;53.946;27.634;2023-03-01T04:08:54;99157.156250;;;21.959999;28.365234
77517;BME280;66628;53.946;27.634;2023-03-01T04:09:54;99156.875000;;;21.980000;28.208984
77517;BME280;66628;53.946;27.634;2023-03-01T04:10:58;99159.156250;;;21.980000;28.073242
77517;BME280;66628;53.946;27.634;2023-03-01T04:11:54;99157.828125;;;22.000000;28.221680
77517;BME280;66628;53.946;27.634;2023-03-01T04:12:54;99159.453125;;;22.000000;28.289062
77517;BME280;66628;53.946;27.634;2023-03-01T04:13:55;99155.460938;;;22.010000;28.502930
77517;BME280;66628;53.946;27.634;2023-03-01T04:14:54;99160.343750;;;22.020000;28.300781
77517;BME280;66628;53.946;27.634;2023-03-01T04:15:54;99163.156250;;;22.020000;28.255859
77517;BME280;66628;53.946;27.634;2023-03-01T04:16:54;99163.046875;;;22.040001;28.583984
77517;BME280;66628;53.946;27.634;2023-03-01T04:17:54;99162.515625;;;22.040001;28.640625
77517;BME280;66628;53.946;27.634;2023-03-01T04:18:54;99165.953125;;;22.030001;28.391602
77517;BME280;66628;53.946;27.634;2023-03-01T04:19:54;99167.781250;;;22.040001;28.302734
77517;BME280;66628;53.946;27.634;2023-03-01T04:20:54;99165.906250;;;22.030001;28.594727
77517;BME280;66628;53.946;27.634;2023-03-01T04:21:54;99165.234375;;;22.010000;28.626953
77517;BME280;66628;53.946;27.634;2023-03-01T04:22:57;99158.593750;;;21.990000;28.805664
77517;BME280;66628;53.946;27.634;2023-03-01T04:23:54;99155.796875;;;21.990000;28.805664
77517;BME280;66628;53.946;27.634;2023-03-01T04:24:54;99158.281250;;;22.030001;29.000000
77517;BME280;66628;53.946;27.634;2023-03-01T04:25:55;99157.562500;;;22.010000;29.077148
77517;BME280;66628;53.946;27.634;2023-03-01T04:26:54;99156.859375;;;22.040001;29.067383
77517;BME280;66628;53.946;27.634;2023-03-01T04:27:54;99151.015625;;;22.049999;29.000977
77517;BME280;66628;53.946;27.634;2023-03-01T04:28:54;99153.625000;;;22.030001;29.000000
77517;BME280;66628;53.946;27.634;2023-03-01T04:29:54;99155.890625;;;22.020000;28.650391
77517;BME280;66628;53.946;27.634;2023-03-01T04:30:55;99152.390625;;;22.000000;28.863281
77517;BME280;66628;53.946;27.634;2023-03-01T04:31:54;99152.468750;;;21.990000;28.839844
77517;BME280;66628;53.946;27.634;2023-03-01T04:32:54;99156.250000;;;22.000000;28.953125
77517;BME280;66628;53.946;27.634;2023-03-01T04:33:54;99157.796875;;;21.990000;28.850586
77517;BME280;66628;53.946;27.634;2023-03-01T04:34:54;99158.031250;;;21.980000;28.805664
77517;BME280;66628;53.946;27.634;2023-03-01T04:35:54;99164.117188;;;21.980000;28.940430
77517;BME280;66628;53.946;27.634;2023-03-01T04:36:54;99165.000000;;;21.980000;28.940430
77517;BME280;66628;53.946;27.634;2023-03-01T04:37:54;99164.421875;;;21.969999;28.996094
77517;BME280;66628;53.946;27.634;2023-03-01T04:38:54;99162.718750;;;21.950001;29.152344
77517;BME280;66628;53.946;27.634;2023-03-01T04:39:54;99166.398438;;;21.980000;28.726562
77517;BME280;66628;53.946;27.634;2023-03-01T04:40:54;99170.484375;;;21.959999;29.051758
77517;BME280;66628;53.946;27.634;2023-03-01T04:41:54;99169.687500;;;21.969999;28.894531